Time;durP1;ratioP1;P1;durP2;ratioP2;P2;SDS_P1;SDS_P2;PMS_P1;PMS_P2;Temp;Humidity;BMP_temperature;BMP_pressure;BME280_temperature;BME280_humidity;BME280_pressure;Samples;Min_cycle;Max_cycle;Signal;HPM_P1;HPM_P2
2021/01/12 00:02:24;;;;;;;19.70;9.60;;;4.90;1.00;;;;;;5073553;28;20330;-68
2021/01/12 00:04:50;;;;;;;15.27;8.80;;;4.90;1.00;;;;;;5073323;28;20169;-69
2021/01/12 00:07:23;;;;;;;13.07;7.70;;;4.80;1.00;;;;;;5073539;28;20545;-68
2021/01/12 00:09:50;;;;;;;15.45;7.60;;;4.80;75.20;;;;;;5073209;28;20207;-68
2021/01/12 00:12:17;;;;;;;9.30;6.80;;;4.80;99.90;;;;;;5073459;28;20176;-68
2021/01/12 00:14:43;;;;;;;16.02;9.50;;;4.80;99.90;;;;;;5073441;28;20258;-68
2021/01/12 00:17:09;;;;;;;10.73;7.63;;;4.80;93.10;;;;;;5073420;28;20679;-69
2021/01/12 00:19:36;;;;;;;11.83;8.20;;;4.90;38.90;;;;;;5073287;28;20950;-67
2021/01/12 00:22:06;;;;;;;9.98;7.47;;;5.00;1.00;;;;;;5072981;28;20425;-69
2021/01/12 00:24:32;;;;;;;14.13;8.15;;;5.10;1.00;;;;;;5073133;28;20164;-68
2021/01/12 00:26:57;;;;;;;12.20;7.60;;;5.00;99.90;;;;;;5072999;28;20168;-69
2021/01/12 00:29:23;;;;;;;20.53;8.70;;;5.00;1.00;;;;;;5072880;28;20187;-68
2021/01/12 00:31:49;;;;;;;9.00;7.77;;;4.90;99.90;;;;;;5072940;28;20234;-68
2021/01/12 00:34:14;;;;;;;11.47;7.80;;;4.80;99.90;;;;;;5072892;28;20247;-68
2021/01/12 00:36:49;;;;;;;12.07;8.30;;;4.90;99.90;;;;;;5073154;28;20169;-68
2021/01/12 00:39:16;;;;;;;10.20;7.53;;;4.90;99.90;;;;;;5073067;28;20202;-68
2021/01/12 00:41:44;;;;;;;11.27;7.95;;;4.70;1.00;;;;;;5072976;28;20196;-68
2021/01/12 00:44:10;;;;;;;11.85;8.27;;;5.00;99.90;;;;;;5072815;28;20176;-69
2021/01/12 00:46:35;;;;;;;11.93;7.83;;;5.00;1.00;;;;;;5072791;28;20164;-69
2021/01/12 00:49:01;;;;;;;10.10;7.17;;;4.90;1.00;;;;;;5071897;28;20204;-68
2021/01/12 00:51:42;;;;;;;9.43;7.70;;;5.10;1.00;;;;;;5073053;28;20178;-68
2021/01/12 00:54:17;;;;;;;10.10;7.28;;;5.10;99.90;;;;;;5072998;28;20167;-68
2021/01/12 00:56:43;;;;;;;9.98;7.25;;;4.90;1.00;;;;;;5073303;28;20507;-69
2021/01/12 00:59:09;;;;;;;7.95;6.78;;;5.00;1.00;;;;;;5072588;28;20314;-69
2021/01/12 01:01:36;;;;;;;9.57;7.20;;;4.80;1.00;;;;;;5072616;28;20192;-69
2021/01/12 01:04:03;;;;;;;11.25;7.93;;;4.70;99.90;;;;;;5072573;28;20215;-68
2021/01/12 01:06:28;;;;;;;9.48;7.80;;;4.80;99.90;;;;;;5072623;28;20175;-69
2021/01/12 03:50:27;;;;;;;2.45;1.30;;;5.80;1.00;;;;;;5073944;28;20195;-68
2021/01/12 03:52:54;;;;;;;2.25;1.23;;;5.70;99.90;;;;;;5073472;28;20199;-68
2021/01/12 03:55:20;;;;;;;2.78;1.42;;;5.90;1.00;;;;;;5073775;28;20164;-68
2021/01/12 03:57:46;;;;;;;1.30;1.00;;;5.90;99.90;;;;;;5073650;28;20182;-68
2021/01/12 04:00:12;;;;;;;1.23;1.13;;;5.80;1.00;;;;;;5073335;28;20716;-68
2021/01/12 04:02:38;;;;;;;2.30;1.00;;;5.80;1.00;;;;;;5073244;28;20630;-68
2021/01/12 04:05:05;;;;;;;1.50;0.90;;;5.80;1.00;;;;;;5073270;28;20164;-68
2021/01/12 04:07:30;;;;;;;1.42;0.85;;;5.80;1.00;;;;;;5073187;28;20179;-68
2021/01/12 04:09:56;;;;;;;2.13;1.17;;;5.70;1.00;;;;;;5073179;28;20180;-68
2021/01/12 04:12:21;;;;;;;1.40;1.00;;;5.70;1.00;;;;;;5073192;28;20234;-68
2021/01/12 04:14:47;;;;;;;4.27;0.83;;;5.70;1.00;;;;;;5073191;28;20172;-68
2021/01/12 04:17:13;;;;;;;1.07;0.87;;;5.70;1.00;;;;;;5073118;28;20193;-68
2021/01/12 04:19:38;;;;;;;1.00;0.60;;;5.90;1.00;;;;;;5073606;28;20188;-68
2021/01/12 04:22:04;;;;;;;2.03;0.80;;;5.90;1.00;;;;;;5073271;28;20195;-68
2021/01/12 04:24:29;;;;;;;1.40;0.70;;;5.90;1.00;;;;;;5072930;28;20629;-68
2021/01/12 04:26:55;;;;;;;1.10;0.70;;;5.70;1.00;;;;;;5073326;28;20242;-68
2021/01/12 04:29:20;;;;;;;5.13;0.80;;;5.60;1.00;;;;;;5072909;28;20196;-68
2021/01/12 04:31:46;;;;;;;0.90;0.70;;;5.70;1.00;;;;;;5073242;28;20171;-67
2021/01/12 04:34:11;;;;;;;1.17;0.80;;;5.70;1.00;;;;;;5072956;28;20172;-68
2021/01/12 04:36:37;;;;;;;1.00;0.70;;;5.80;1.00;;;;;;5072974;28;20172;-68
2021/01/12 04:39:03;;;;;;;2.50;0.80;;;5.60;1.00;;;;;;5072762;28;20696;-68
2021/01/12 04:41:28;;;;;;;1.83;0.70;;;5.80;1.00;;;;;;5072737;28;20694;-68
2021/01/12 04:43:54;;;;;;;0.90;0.70;;;5.90;1.00;;;;;;5072796;28;20460;-68
2021/01/12 04:46:19;;;;;;;1.00;0.60;;;5.80;1.00;;;;;;5073094;28;20649;-68
2021/01/12 04:48:47;;;;;;;0.90;0.70;;;5.80;1.00;;;;;;5072554;28;20257;-68
2021/01/12 04:51:13;;;;;;;1.63;0.93;;;5.70;1.00;;;;;;5072915;28;20176;-68
2021/01/12 04:53:47;;;;;;;2.78;1.00;;;5.80;1.00;;;;;;5072005;28;20176;-68
2021/01/12 04:56:19;;;;;;;2.20;1.00;;;5.70;1.00;;;;;;5072901;28;20163;-67
2021/01/12 04:58:47;;;;;;;2.00;0.93;;;5.70;1.00;;;;;;5072475;28;20156;-67
2021/01/12 05:01:15;;;;;;;1.27;0.80;;;5.60;1.00;;;;;;5072960;28;20174;-68
2021/01/12 05:03:46;;;;;;;2.20;1.10;;;5.60;1.00;;;;;;5073184;28;20686;-67
2021/01/12 05:06:12;;;;;;;2.05;1.10;;;5.60;1.00;;;;;;5072361;28;20216;-68
2021/01/12 05:08:42;;;;;;;1.52;0.80;;;5.60;1.00;;;;;;5072346;28;20676;-68
2021/01/12 05:11:08;;;;;;;0.90;0.70;;;5.70;1.00;;;;;;5072840;28;20545;-68
2021/01/12 05:13:35;;;;;;;3.80;1.03;;;5.70;1.00;;;;;;5072718;28;20168;-68
2021/01/12 05:16:07;;;;;;;1.55;0.80;;;5.80;1.00;;;;;;5072527;28;20406;-68
2021/01/12 05:18:40;;;;;;;1.30;0.75;;;5.60;1.00;;;;;;5072356;28;20183;-68
2021/01/12 05:21:08;;;;;;;1.10;0.70;;;5.70;1.00;;;;;;5072721;28;20160;-68
2021/01/12 05:23:59;;;;;;;0.90;0.57;;;5.60;1.00;;;;;;5072162;28;20210;-68
2021/01/12 05:26:30;;;;;;;2.05;0.90;;;5.80;1.00;;;;;;5072502;28;20244;-67
2021/01/12 05:28:59;;;;;;;3.50;0.60;;;5.80;1.00;;;;;;5072456;28;20155;-67
2021/01/12 05:31:26;;;;;;;2.47;0.60;;;5.80;1.00;;;;;;5072494;28;20172;-68
2021/01/12 05:33:52;;;;;;;3.60;0.80;;;5.70;99.90;;;;;;5072558;28;20176;-68
2021/01/12 05:36:20;;;;;;;1.10;0.63;;;5.60;1.00;;;;;;5075663;28;20168;-67
2021/01/12 05:38:49;;;;;;;1.65;0.88;;;5.60;1.00;;;;;;5076172;28;20377;-68
2021/01/12 05:41:15;;;;;;;1.90;0.70;;;5.70;1.00;;;;;;5076019;28;20179;-68
2021/01/12 05:43:46;;;;;;;2.38;1.10;;;5.70;1.00;;;;;;5075889;28;20200;-68
2021/01/12 05:46:14;;;;;;;1.33;1.08;;;5.70;1.00;;;;;;5076141;28;20166;-68
2021/01/12 05:48:42;;;;;;;3.17;1.70;;;5.80;1.00;;;;;;5075716;28;20187;-69
2021/01/12 05:51:10;;;;;;;3.67;0.90;;;5.80;1.00;;;;;;5075735;28;20191;-68
2021/01/12 05:53:50;;;;;;;1.20;0.80;;;5.70;1.00;;;;;;5075514;28;20632;-68
2021/01/12 05:56:27;;;;;;;2.08;1.10;;;5.70;1.00;;;;;;5075557;28;20168;-67
2021/01/12 05:58:55;;;;;;;1.60;1.00;;;5.80;1.00;;;;;;5075676;28;20183;-68
2021/01/12 06:01:44;;;;;;;1.73;1.10;;;5.80;1.00;;;;;;5075525;28;20564;-68
2021/01/12 06:04:11;;;;;;;6.90;1.10;;;5.90;1.00;;;;;;5075451;28;20160;-67
2021/01/12 06:06:39;;;;;;;5.20;1.70;;;5.90;1.00;;;;;;5075529;28;20575;-68
2021/01/12 06:09:06;;;;;;;3.15;0.90;;;5.90;1.00;;;;;;5075349;28;20278;-68
2021/01/12 06:11:34;;;;;;;5.32;0.90;;;5.90;1.00;;;;;;5075257;28;20244;-68
2021/01/12 06:14:10;;;;;;;3.60;1.30;;;5.90;1.00;;;;;;5075670;28;20176;-68
2021/01/12 06:16:37;;;;;;;2.30;1.10;;;5.90;1.00;;;;;;5075452;28;20152;-67
2021/01/12 06:19:07;;;;;;;2.05;0.90;;;5.90;1.00;;;;;;5075501;28;20218;-68
2021/01/12 06:21:44;;;;;;;4.55;1.50;;;5.90;1.00;;;;;;5075421;28;20302;-68
2021/01/12 06:24:14;;;;;;;2.05;1.20;;;5.90;1.00;;;;;;5075472;28;20164;-68
2021/01/12 06:26:40;;;;;;;2.88;2.25;;;6.00;1.00;;;;;;5075213;28;20156;-68
2021/01/12 06:29:09;;;;;;;6.53;1.33;;;5.90;1.00;;;;;;5075071;28;20191;-68
2021/01/12 06:31:56;;;;;;;2.30;1.50;;;5.90;1.00;;;;;;5074795;28;20217;-67
2021/01/12 06:34:22;;;;;;;5.00;1.70;;;5.90;1.00;;;;;;5074750;28;20186;-68
2021/01/12 06:36:56;;;;;;;5.23;1.57;;;5.90;1.00;;;;;;5075029;28;20571;-68
2021/01/12 06:39:39;;;;;;;4.07;1.23;;;5.90;1.00;;;;;;5074520;28;20452;-68
2021/01/12 06:42:05;;;;;;;3.55;1.15;;;5.80;1.00;;;;;;5074518;28;20180;-68
2021/01/12 06:44:34;;;;;;;2.97;1.77;;;5.90;1.00;;;;;;5074893;28;20579;-68
2021/01/12 06:47:00;;;;;;;5.00;1.85;;;5.90;1.00;;;;;;5073632;28;20559;-68
2021/01/12 06:49:27;;;;;;;2.15;1.23;;;5.90;1.00;;;;;;5074448;28;20730;-68
2021/01/12 06:52:10;;;;;;;3.63;1.38;;;5.80;1.00;;;;;;5075462;28;20215;-68
2021/01/12 06:54:42;;;;;;;3.47;1.30;;;5.80;1.00;;;;;;5074885;28;20686;-68
2021/01/12 06:57:10;;;;;;;2.20;1.00;;;5.80;1.00;;;;;;5074762;28;20168;-68
2021/01/12 06:59:56;;;;;;;2.33;1.33;;;6.10;1.00;;;;;;5074633;28;20184;-68
2021/01/12 07:02:31;;;;;;;4.20;1.00;;;6.10;1.00;;;;;;5074260;28;20428;-68
2021/01/12 07:04:58;;;;;;;4.13;1.17;;;6.00;1.00;;;;;;5074713;28;20616;-68
2021/01/12 07:07:26;;;;;;;3.40;1.15;;;6.00;1.00;;;;;;5074481;28;20168;-68
2021/01/12 07:09:53;;;;;;;4.75;1.60;;;6.10;1.00;;;;;;5074311;28;20180;-68
2021/01/12 07:12:20;;;;;;;5.13;1.35;;;6.10;1.00;;;;;;5074625;28;20534;-68
2021/01/12 07:14:49;;;;;;;3.05;1.48;;;6.10;1.00;;;;;;5074331;28;20172;-69
2021/01/12 07:17:29;;;;;;;3.45;1.65;;;6.20;1.00;;;;;;5074140;28;20639;-69
2021/01/12 07:20:06;;;;;;;3.90;1.20;;;6.10;1.00;;;;;;5074513;28;20192;-67
2021/01/12 07:22:36;;;;;;;3.63;1.17;;;6.10;1.00;;;;;;5074452;28;20668;-69
2021/01/12 07:25:09;;;;;;;1.50;1.10;;;6.10;1.00;;;;;;5074378;28;20204;-68
2021/01/12 07:27:36;;;;;;;5.28;1.20;;;6.30;1.00;;;;;;5074287;28;20156;-68
2021/01/12 07:30:04;;;;;;;3.55;1.30;;;6.20;1.00;;;;;;5074140;28;20190;-68
2021/01/12 07:32:32;;;;;;;3.28;1.30;;;6.10;1.00;;;;;;5074867;28;20641;-66
2021/01/12 07:35:12;;;;;;;5.57;1.95;;;6.10;1.00;;;;;;5074767;28;20248;-69
2021/01/12 07:37:40;;;;;;;4.05;2.40;;;6.20;1.00;;;;;;5074365;28;20159;-68
2021/01/12 07:40:09;;;;;;;3.28;2.40;;;6.30;1.00;;;;;;5074236;28;20210;-68
2021/01/12 07:42:44;;;;;;;2.25;1.80;;;6.30;1.00;;;;;;5074411;28;20267;-68
2021/01/12 07:45:10;;;;;;;3.80;2.20;;;6.40;1.00;;;;;;5074124;28;20579;-68
2021/01/12 07:47:36;;;;;;;3.28;2.05;;;6.40;1.00;;;;;;5073722;28;20172;-69
2021/01/12 07:50:02;;;;;;;4.77;1.60;;;6.40;1.00;;;;;;5073805;28;20282;-68
2021/01/12 07:52:28;;;;;;;1.77;1.60;;;6.30;1.00;;;;;;5073512;28;20172;-69
2021/01/12 07:54:54;;;;;;;3.67;2.00;;;6.30;1.00;;;;;;5073566;28;20525;-68
2021/01/12 07:57:19;;;;;;;4.40;2.20;;;6.40;1.00;;;;;;5073506;28;20173;-68
2021/01/12 07:59:45;;;;;;;4.70;1.60;;;6.40;1.00;;;;;;5073016;28;20215;-68
2021/01/12 08:02:12;;;;;;;1.50;1.40;;;6.40;1.00;;;;;;5073213;28;20446;-68
2021/01/12 08:04:39;;;;;;;5.47;1.45;;;6.40;1.00;;;;;;5073459;28;20390;-68
2021/01/12 08:07:04;;;;;;;2.90;1.50;;;6.30;1.00;;;;;;5073541;28;20198;-68
2021/01/12 08:09:30;;;;;;;1.83;1.33;;;6.30;1.00;;;;;;5073955;28;20180;-68
2021/01/12 08:12:04;;;;;;;3.50;2.17;;;6.20;1.00;;;;;;5073444;28;20294;-68
2021/01/12 08:14:30;;;;;;;1.60;0.90;;;6.50;1.00;;;;;;5071722;28;20199;-67
2021/01/12 08:16:57;;;;;;;4.40;1.80;;;6.50;1.00;;;;;;5074187;28;20188;-68
2021/01/12 08:19:25;;;;;;;1.20;1.08;;;6.50;1.00;;;;;;5073077;28;20691;-68
2021/01/12 08:21:54;;;;;;;4.32;1.80;;;6.50;99.90;;;;;;5073338;28;20643;-68
2021/01/12 08:24:24;;;;;;;7.07;1.80;;;6.50;99.90;;;;;;5071591;28;20179;-68
2021/01/12 08:26:50;;;;;;;4.93;1.42;;;6.50;99.90;;;;;;5072877;28;20165;-68
2021/01/12 08:29:26;;;;;;;4.30;3.53;;;6.50;99.90;;;;;;5072409;28;20192;-67
2021/01/12 08:32:01;;;;;;;3.60;1.50;;;6.40;99.90;;;;;;5072887;28;20229;-68
2021/01/12 08:34:30;;;;;;;2.30;1.00;;;6.30;99.90;;;;;;5073062;28;20167;-68
2021/01/12 08:37:02;;;;;;;7.72;1.27;;;6.20;1.00;;;;;;5073234;28;20182;-68
2021/01/12 08:39:30;;;;;;;4.78;2.40;;;6.30;1.00;;;;;;5073064;28;20245;-70
2021/01/12 08:41:56;;;;;;;1.85;1.55;;;6.50;1.00;;;;;;5073101;28;20195;-69
2021/01/12 08:44:26;;;;;;;21.70;10.40;;;6.60;1.00;;;;;;5072923;28;20255;-67
2021/01/12 08:46:53;;;;;;;1.80;1.50;;;6.80;1.00;;;;;;5072644;28;20199;-67
2021/01/12 08:49:29;;;;;;;2.42;1.50;;;6.80;99.90;;;;;;5073190;28;20222;-67
2021/01/12 08:51:55;;;;;;;2.67;1.35;;;6.70;99.90;;;;;;5074033;28;20629;-66
2021/01/12 08:54:22;;;;;;;2.43;1.67;;;6.70;99.90;;;;;;5073134;28;20233;-69
2021/01/12 08:56:55;;;;;;;3.35;2.28;;;6.50;99.90;;;;;;5073068;28;20453;-66
2021/01/12 08:59:27;;;;;;;4.82;1.60;;;6.50;1.00;;;;;;5072818;28;20660;-67
2021/01/12 09:01:54;;;;;;;2.20;1.50;;;6.70;1.00;;;;;;5072942;28;20184;-67
2021/01/12 09:04:19;;;;;;;2.10;1.58;;;6.70;1.00;;;;;;5073220;28;20175;-68
2021/01/12 09:06:45;;;;;;;2.03;1.50;;;6.80;99.90;;;;;;5072943;28;20561;-67
2021/01/12 09:09:12;;;;;;;2.27;1.60;;;6.80;99.90;;;;;;5072408;28;20184;-68
2021/01/12 09:11:43;;;;;;;2.55;1.55;;;6.90;99.90;;;;;;5075985;28;20176;-68
2021/01/12 09:14:10;;;;;;;9.02;5.28;;;6.90;99.90;;;;;;5076892;28;20206;-67
2021/01/12 09:16:38;;;;;;;2.80;1.80;;;6.80;99.90;;;;;;5076383;28;20587;-68
2021/01/12 09:19:17;;;;;;;5.05;1.95;;;6.90;1.00;;;;;;5076333;28;20325;-68
2021/01/12 09:21:44;;;;;;;2.42;1.50;;;7.10;53.50;;;;;;5076323;28;20242;-66
2021/01/12 09:24:17;;;;;;;2.55;1.90;;;7.20;99.90;;;;;;5076567;28;20183;-67
2021/01/12 09:26:44;;;;;;;2.47;1.38;;;7.20;99.90;;;;;;5076767;28;20164;-66
2021/01/12 09:29:10;;;;;;;4.00;2.33;;;7.40;99.90;;;;;;5076104;28;20187;-69
2021/01/12 09:31:48;;;;;;;5.07;2.20;;;7.30;99.90;;;;;;5076818;28;20180;-67
2021/01/12 09:34:22;;;;;;;4.90;1.75;;;7.30;99.90;;;;;;5076240;28;20380;-68
2021/01/12 09:36:48;;;;;;;2.05;1.50;;;7.30;99.90;;;;;;5076782;28;20643;-67
2021/01/12 09:39:14;;;;;;;2.30;1.37;;;7.40;99.90;;;;;;5076246;28;20278;-67
2021/01/12 09:41:40;;;;;;;5.53;1.50;;;7.30;99.90;;;;;;5076371;28;20210;-67
2021/01/12 09:44:07;;;;;;;1.92;1.73;;;7.30;99.90;;;;;;5076422;28;20655;-67
2021/01/12 09:46:33;;;;;;;1.77;1.13;;;7.30;99.90;;;;;;5076327;28;20200;-67
2021/01/12 09:48:59;;;;;;;1.95;1.45;;;7.20;99.90;;;;;;5075922;28;20200;-67
2021/01/12 09:51:25;;;;;;;3.70;1.47;;;7.30;99.90;;;;;;5075926;28;20218;-67
2021/01/12 09:53:51;;;;;;;3.40;1.80;;;7.30;99.90;;;;;;5075739;28;20409;-67
2021/01/12 09:56:18;;;;;;;2.10;1.60;;;7.40;99.90;;;;;;5075891;28;20175;-68
2021/01/12 09:58:45;;;;;;;1.45;1.00;;;7.40;99.90;;;;;;5076165;28;20172;-67
2021/01/12 10:01:14;;;;;;;1.98;1.70;;;7.50;99.90;;;;;;5075363;28;20698;-69
2021/01/12 10:03:39;;;;;;;2.75;1.45;;;7.60;99.90;;;;;;5074227;28;20654;-68
2021/01/12 10:06:05;;;;;;;3.27;1.40;;;7.60;99.90;;;;;;5075474;28;20160;-68
2021/01/12 10:08:33;;;;;;;2.70;1.70;;;7.60;99.90;;;;;;5075669;28;20220;-69
2021/01/12 10:10:59;;;;;;;2.10;1.77;;;7.80;99.90;;;;;;5075450;28;20715;-68
2021/01/12 10:13:25;;;;;;;3.00;1.90;;;7.40;99.90;;;;;;5075509;28;20172;-68
2021/01/12 10:15:50;;;;;;;3.87;1.67;;;7.40;99.90;;;;;;5075550;28;20226;-68
2021/01/12 10:18:16;;;;;;;2.23;2.00;;;7.50;99.90;;;;;;5075246;28;20184;-68
2021/01/12 10:20:42;;;;;;;2.07;1.87;;;7.70;99.90;;;;;;5074972;28;20203;-68
2021/01/12 10:23:07;;;;;;;2.43;2.23;;;7.70;99.90;;;;;;5074910;28;20438;-68
2021/01/12 10:25:34;;;;;;;2.70;2.50;;;7.70;99.90;;;;;;5075214;28;20419;-68
2021/01/12 10:28:00;;;;;;;3.55;2.33;;;7.60;99.90;;;;;;5075202;28;20160;-68
2021/01/12 10:30:26;;;;;;;3.00;2.50;;;7.70;99.90;;;;;;5075084;28;20192;-66
2021/01/12 10:32:52;;;;;;;7.18;3.55;;;7.80;99.90;;;;;;5075362;28;20172;-69
2021/01/12 10:35:18;;;;;;;3.77;2.77;;;7.90;99.90;;;;;;5075181;28;20259;-68
2021/01/12 10:37:44;;;;;;;2.73;2.50;;;7.90;99.90;;;;;;5075176;28;20175;-67
2021/01/12 10:40:12;;;;;;;3.42;2.83;;;7.70;99.90;;;;;;5075045;28;20426;-68
2021/01/12 10:42:41;;;;;;;3.70;3.00;;;7.70;99.90;;;;;;5075456;28;20222;-67
2021/01/12 10:45:08;;;;;;;3.70;3.30;;;7.80;99.90;;;;;;5075257;28;20182;-68
2021/01/12 10:47:35;;;;;;;3.97;2.88;;;7.70;99.90;;;;;;5074803;28;20242;-69
2021/01/12 10:50:01;;;;;;;3.75;1.73;;;7.80;99.90;;;;;;5075122;28;20192;-68
2021/01/12 10:52:27;;;;;;;2.55;1.55;;;7.60;99.90;;;;;;5074807;28;20514;-68
2021/01/12 10:54:52;;;;;;;1.17;0.90;;;7.60;99.90;;;;;;5074463;28;20178;-68
2021/01/12 10:57:18;;;;;;;1.40;1.30;;;7.50;99.90;;;;;;5074789;28;20172;-67
2021/01/12 10:59:43;;;;;;;1.40;1.30;;;7.70;99.90;;;;;;5075532;28;20195;-68
2021/01/12 11:02:10;;;;;;;1.23;1.07;;;7.70;99.90;;;;;;5074742;28;20196;-69
2021/01/12 11:04:36;;;;;;;2.03;1.70;;;7.60;99.90;;;;;;5074532;28;20172;-68
2021/01/12 11:07:02;;;;;;;3.77;2.30;;;7.80;99.90;;;;;;5074662;28;20580;-70
2021/01/12 11:09:28;;;;;;;5.73;2.80;;;7.80;99.90;;;;;;5074738;28;20767;-67
2021/01/12 11:12:01;;;;;;;4.00;2.77;;;7.80;99.90;;;;;;5075189;28;20168;-68
2021/01/12 11:14:26;;;;;;;4.20;2.80;;;7.80;99.90;;;;;;5074562;28;20376;-69
2021/01/12 11:16:52;;;;;;;3.50;2.40;;;7.80;99.90;;;;;;5074376;28;20172;-68
2021/01/12 11:19:17;;;;;;;2.83;2.60;;;7.80;99.90;;;;;;5074007;28;20191;-68
2021/01/12 11:21:45;;;;;;;3.50;3.00;;;7.80;99.90;;;;;;5074626;28;20195;-68
2021/01/12 11:24:13;;;;;;;3.88;3.13;;;7.80;99.90;;;;;;5074373;28;20172;-68
2021/01/12 11:26:40;;;;;;;2.80;2.47;;;7.90;99.90;;;;;;5074757;28;20168;-68
2021/01/12 11:29:06;;;;;;;4.28;2.85;;;7.70;99.90;;;;;;5075190;28;20545;-69
2021/01/12 11:31:32;;;;;;;3.58;3.03;;;7.80;99.90;;;;;;5074235;28;20282;-69
2021/01/12 11:33:58;;;;;;;4.93;3.50;;;7.80;99.90;;;;;;5074612;28;20649;-69
2021/01/12 11:36:24;;;;;;;4.40;3.77;;;7.70;99.90;;;;;;5074049;28;20447;-69
2021/01/12 11:38:50;;;;;;;5.60;4.03;;;7.70;99.90;;;;;;5073922;28;20384;-70
2021/01/12 11:41:15;;;;;;;5.33;3.73;;;7.70;99.90;;;;;;5073960;28;20418;-69
2021/01/12 11:43:41;;;;;;;4.67;3.60;;;7.70;99.90;;;;;;5073892;28;20210;-69
2021/01/12 11:46:07;;;;;;;5.03;4.23;;;7.70;99.90;;;;;;5073618;28;20172;-69
2021/01/12 11:48:33;;;;;;;7.50;4.73;;;7.70;99.90;;;;;;5073464;28;20180;-69
2021/01/12 11:50:59;;;;;;;5.95;3.88;;;7.80;99.90;;;;;;5073431;28;20521;-69
2021/01/12 11:53:25;;;;;;;3.00;2.70;;;7.70;99.90;;;;;;5073844;28;20703;-68
2021/01/12 11:55:50;;;;;;;3.57;3.10;;;7.60;99.90;;;;;;5073490;28;20176;-66
2021/01/12 11:58:16;;;;;;;2.50;2.10;;;7.40;99.90;;;;;;5072863;28;20179;-69
2021/01/12 12:00:43;;;;;;;3.03;2.73;;;7.40;99.90;;;;;;5073036;28;20196;-68
2021/01/12 12:03:09;;;;;;;4.45;2.20;;;7.50;99.90;;;;;;5073288;28;20223;-69
2021/01/12 12:05:35;;;;;;;2.97;1.47;;;7.80;99.90;;;;;;5073248;28;20672;-69
2021/01/12 12:08:00;;;;;;;1.80;1.40;;;7.80;99.90;;;;;;5073515;28;20425;-68
2021/01/12 12:10:26;;;;;;;3.20;1.77;;;7.80;99.90;;;;;;5073183;28;20530;-69
2021/01/12 12:12:52;;;;;;;1.63;1.30;;;7.50;99.90;;;;;;5073212;28;20542;-69
2021/01/12 12:15:19;;;;;;;1.95;1.55;;;7.80;99.90;;;;;;5073304;28;20164;-67
2021/01/12 12:17:44;;;;;;;3.33;1.65;;;7.80;99.90;;;;;;5073113;28;20172;-67
2021/01/12 12:20:12;;;;;;;2.00;1.70;;;7.60;99.90;;;;;;5073156;28;20241;-68
2021/01/12 12:22:38;;;;;;;1.65;1.40;;;7.90;99.90;;;;;;5073397;28;20196;-69
2021/01/12 12:25:04;;;;;;;1.60;1.10;;;7.90;99.90;;;;;;5073058;28;20216;-70
2021/01/12 12:27:30;;;;;;;8.15;1.70;;;7.80;99.90;;;;;;5072909;28;20218;-69
2021/01/12 12:29:55;;;;;;;3.50;2.23;;;7.70;99.90;;;;;;5073254;28;20188;-69
2021/01/12 12:32:22;;;;;;;2.80;1.70;;;7.80;99.90;;;;;;5072789;28;20176;-69
2021/01/12 12:34:48;;;;;;;11.60;3.55;;;7.70;99.90;;;;;;5073600;28;20237;-69
2021/01/12 12:37:14;;;;;;;1.90;1.20;;;7.70;99.90;;;;;;5072706;28;20164;-68
2021/01/12 12:39:39;;;;;;;3.27;1.47;;;7.70;99.90;;;;;;5072932;28;20276;-69
2021/01/12 12:42:06;;;;;;;2.27;1.43;;;7.90;99.90;;;;;;5072914;28;20187;-69
2021/01/12 12:44:32;;;;;;;2.15;1.35;;;7.90;99.90;;;;;;5073338;28;20172;-69
2021/01/12 12:47:01;;;;;;;2.27;0.90;;;7.70;99.90;;;;;;5072826;28;20262;-70
2021/01/12 12:49:27;;;;;;;1.98;0.93;;;7.50;99.90;;;;;;5072610;28;20413;-69
2021/01/12 12:51:53;;;;;;;1.50;0.80;;;7.40;99.90;;;;;;5073033;28;20607;-69
2021/01/12 12:54:20;;;;;;;1.30;1.00;;;7.50;99.90;;;;;;5072424;28;21073;-71
2021/01/12 12:56:53;;;;;;;2.85;0.90;;;7.40;99.90;;;;;;5073045;28;20542;-68
2021/01/12 12:59:19;;;;;;;2.38;1.67;;;7.40;99.90;;;;;;5073066;28;20199;-70
2021/01/12 13:01:52;;;;;;;5.55;1.40;;;7.40;99.90;;;;;;5072607;28;20191;-69
2021/01/12 13:04:18;;;;;;;1.50;1.35;;;7.40;99.90;;;;;;5072794;28;20621;-70
2021/01/12 13:06:53;;;;;;;1.70;1.02;;;7.30;99.90;;;;;;5073262;28;20185;-69
2021/01/12 13:09:21;;;;;;;1.63;1.02;;;7.40;99.90;;;;;;5072565;28;20188;-69
2021/01/12 13:11:50;;;;;;;1.58;1.10;;;7.40;99.90;;;;;;5073011;28;20180;-69
2021/01/12 13:14:16;;;;;;;1.83;1.30;;;7.50;99.90;;;;;;5072860;28;20172;-70
2021/01/12 13:16:43;;;;;;;4.82;1.10;;;7.40;99.90;;;;;;5072767;28;20191;-68
2021/01/12 13:19:14;;;;;;;2.80;1.08;;;7.70;99.90;;;;;;5072593;28;20188;-69
2021/01/12 13:21:51;;;;;;;1.70;1.10;;;7.70;99.90;;;;;;5072470;28;20259;-70
2021/01/12 13:24:16;;;;;;;1.20;0.70;;;7.80;99.90;;;;;;5072486;28;20176;-69
2021/01/12 13:26:46;;;;;;;2.50;1.37;;;7.80;99.90;;;;;;5072165;28;20213;-69
2021/01/12 13:29:12;;;;;;;1.42;1.08;;;7.70;99.90;;;;;;5072154;28;20432;-70
2021/01/12 13:31:37;;;;;;;1.83;0.80;;;7.70;99.90;;;;;;5072474;28;20259;-70
2021/01/12 13:34:03;;;;;;;3.00;1.23;;;7.70;99.90;;;;;;5070838;28;20179;-69
2021/01/12 13:36:28;;;;;;;2.10;1.20;;;7.80;99.90;;;;;;5072146;28;20168;-69
2021/01/12 13:38:54;;;;;;;2.00;0.80;;;7.70;99.90;;;;;;5072092;28;20583;-69
2021/01/12 13:41:19;;;;;;;6.50;1.20;;;7.10;99.90;;;;;;5071905;28;20194;-69
2021/01/12 13:43:45;;;;;;;4.50;1.17;;;7.20;99.90;;;;;;5072267;28;20172;-69
2021/01/12 13:46:10;;;;;;;4.73;1.13;;;7.10;99.90;;;;;;5072121;28;20168;-70
2021/01/12 13:48:36;;;;;;;2.20;1.13;;;7.30;99.90;;;;;;5072124;28;20188;-70
2021/01/12 13:51:02;;;;;;;6.90;1.70;;;7.40;99.90;;;;;;5071958;28;20200;-67
2021/01/12 13:53:28;;;;;;;4.17;2.20;;;7.40;99.90;;;;;;5071899;28;20240;-71
2021/01/12 13:55:54;;;;;;;2.63;1.53;;;7.10;99.90;;;;;;5072317;28;20216;-69
2021/01/12 13:58:22;;;;;;;3.20;1.50;;;7.10;99.90;;;;;;5075582;28;20377;-70
2021/01/12 14:00:49;;;;;;;1.60;0.90;;;6.90;99.90;;;;;;5075632;28;20183;-69
2021/01/12 14:03:15;;;;;;;2.15;1.13;;;7.10;99.90;;;;;;5075231;28;20200;-68
2021/01/12 14:05:41;;;;;;;4.63;1.20;;;7.10;60.20;;;;;;5075545;28;20164;-69
2021/01/12 14:08:06;;;;;;;2.50;0.90;;;7.00;31.40;;;;;;5075672;28;20399;-70
2021/01/12 14:10:32;;;;;;;2.37;1.03;;;6.80;99.90;;;;;;5075767;28;20656;-70
2021/01/12 14:12:57;;;;;;;4.90;1.17;;;6.80;1.00;;;;;;5075575;28;20172;-69
2021/01/12 14:15:24;;;;;;;5.13;0.80;;;6.90;1.00;;;;;;5075675;28;20255;-69
2021/01/12 14:17:59;;;;;;;1.45;0.90;;;7.00;1.00;;;;;;5075216;28;20183;-68
2021/01/12 14:20:25;;;;;;;2.25;1.45;;;6.70;1.00;;;;;;5074630;28;20179;-68
2021/01/12 14:22:56;;;;;;;5.15;1.55;;;6.90;1.00;;;;;;5074673;28;20253;-69
2021/01/12 14:25:23;;;;;;;5.15;0.80;;;7.00;1.00;;;;;;5074992;28;20176;-70
2021/01/12 14:27:49;;;;;;;3.95;1.52;;;6.90;99.90;;;;;;5075212;28;20697;-70
2021/01/12 14:30:15;;;;;;;6.20;1.03;;;6.90;99.90;;;;;;5074640;28;20196;-69
2021/01/12 14:32:42;;;;;;;4.47;1.20;;;7.00;99.90;;;;;;5074895;28;20200;-70
2021/01/12 14:35:09;;;;;;;6.32;1.30;;;6.90;1.00;;;;;;5074975;28;20171;-70
2021/01/12 14:37:40;;;;;;;4.50;1.30;;;7.10;1.00;;;;;;5074923;28;20567;-70
2021/01/12 14:40:11;;;;;;;4.85;1.33;;;7.50;1.00;;;;;;5074939;28;20537;-70
2021/01/12 14:42:42;;;;;;;3.25;1.60;;;8.30;99.90;;;;;;5075377;28;20256;-69
2021/01/12 14:45:10;;;;;;;16.33;3.40;;;7.40;99.90;;;;;;5075198;28;20195;-69
2021/01/12 14:47:36;;;;;;;3.20;1.45;;;7.60;99.90;;;;;;5075048;28;20176;-70
2021/01/12 14:50:02;;;;;;;5.43;1.40;;;9.50;99.90;;;;;;5073459;28;20222;-69
2021/01/12 14:52:28;;;;;;;6.88;1.55;;;9.40;56.40;;;;;;5075227;28;20240;-69
2021/01/12 14:54:53;;;;;;;5.20;1.40;;;8.70;99.90;;;;;;5074937;28;20182;-70
2021/01/12 14:57:20;;;;;;;5.20;1.30;;;8.50;99.90;;;;;;5074844;28;20176;-69
2021/01/12 14:59:46;;;;;;;3.65;1.52;;;8.80;99.90;;;;;;5074653;28;20284;-69
2021/01/12 15:02:12;;;;;;;3.50;1.70;;;10.40;11.00;;;;;;5074601;28;20206;-70
2021/01/12 15:04:38;;;;;;;2.10;1.50;;;11.30;1.00;;;;;;5074456;28;20168;-68
2021/01/12 15:07:03;;;;;;;2.83;0.93;;;12.40;1.00;;;;;;5074448;28;20164;-68
2021/01/12 15:09:29;;;;;;;1.97;1.20;;;11.40;1.00;;;;;;5073417;28;20188;-69
2021/01/12 15:11:54;;;;;;;6.73;0.70;;;12.40;1.00;;;;;;5074367;28;20438;-69
2021/01/12 15:14:20;;;;;;;4.77;1.20;;;11.40;1.00;;;;;;5074109;28;20176;-68
2021/01/12 15:16:46;;;;;;;5.80;1.30;;;9.10;1.00;;;;;;5073828;28;20222;-69
2021/01/12 15:19:12;;;;;;;2.00;1.03;;;9.20;1.00;;;;;;5074033;28;20256;-70
2021/01/12 15:21:38;;;;;;;1.77;0.83;;;9.20;1.00;;;;;;5074116;28;20490;-69
2021/01/12 15:24:04;;;;;;;5.83;2.03;;;8.70;1.00;;;;;;5074597;28;20775;-69
2021/01/12 15:26:29;;;;;;;2.40;0.90;;;8.40;1.00;;;;;;5074188;28;20429;-70
2021/01/12 15:28:55;;;;;;;5.67;1.40;;;8.50;1.00;;;;;;5073988;28;20405;-70
2021/01/12 15:31:21;;;;;;;8.10;2.00;;;8.60;1.00;;;;;;5074478;28;20168;-69
2021/01/12 15:33:46;;;;;;;3.03;1.07;;;8.30;7.00;;;;;;5074275;28;20169;-70
2021/01/12 15:36:13;;;;;;;2.90;0.70;;;8.10;1.00;;;;;;5074050;28;20246;-70
2021/01/12 15:38:40;;;;;;;2.88;1.15;;;7.60;1.00;;;;;;5073837;28;20168;-70
2021/01/12 15:41:06;;;;;;;5.85;1.10;;;7.10;38.70;;;;;;5074057;28;20626;-70
2021/01/12 15:43:32;;;;;;;5.03;0.98;;;7.30;54.00;;;;;;5073869;28;20607;-69
2021/01/12 15:45:58;;;;;;;5.80;1.13;;;7.20;1.00;;;;;;5073198;28;20160;-68